Terminal Aerodrome Forecast
Issued by NWS Mt. Holly, NJ

Home | Current Version | Previous Version | Text Only | Print | Product List | Glossary On
Versions: 1 2 3 4 5 6 7 8 9 10 11 12 13 14 15 16 17 18 19 20 21
199
FTUS41 KPHI 230944 AAE
TAFRDG
TAF AMD
KRDG 230944Z 2310/2406 35003KT P6SM SCT050
      TEMPO 2310/2311 1/2SM FG VV002
     FM231100 02004KT P6SM SCT150
     FM231600 08004KT P6SM BKN200=

USA.gov is the U.S. government's official web portal to all federal, state and local government web resources and services.